Airfield :
LOGIN :

Register | Disclaimer

   EN    FR    IT 

 










Legend :    VFR   Marginal VFR   IFR   Intensive IFR   Very Intensive IFR
Visi :
Ceiling :
>= 8 km
>= 3000ft
5 to 8 km
1000 to 3000 ft
1500m to 5 km
500 to 1000 ft
800 to 1500m
200 to 500 ft
< 800m
< 200 ft
Symbols :   Thunderstorms  Fog  Heavy snow  Heavy precipitations  Wind > 20 kt
SIGMETs :     Misc.  Thunderstorms  Icing  Turbulence  Mountain Waves  Volcanic Ashes






- Airport Elevation : 17 ft
- IATA code : GRQ


EHGG - Groningen Eelde

CURRENT METAR :
  • 132055Z AUTO 23015KT 200V270 9999 BKN016 OVC021 16/13 Q1006 NOSIG

EXPIRED METARs :
  • 132025Z AUTO 23017KT 200V270 9999 NSC 16/13 Q1006 NOSIG
  • 131955Z AUTO 23017KT 200V260 9999 -DZ FEW015CB 16/14 Q1006 NOSIG
  • 131925Z AUTO 23020KT 200V260 9999 -DZ FEW015CB 17/14 Q1005 RERA REDZ NOSIG
  • 131855Z AUTO 24021G32KT 200V270 9999 FEW020CB 18/13 Q1005 NOSIG
  • 131825Z AUTO 22016KT 190V250 9999 NSC 19/16 Q1004 BECMG 23014KT

TAF TAF EHGG
Valid from the 13 at 18:00 until the 15 at 00:00 UTC


131706Z 1318/1424 24015KT 9999 BKN040
TEMPO 1318/1320 25020G30KT 4000 RA SHRA BKN020 FEW030CB
BECMG 1403/1406 19005KT
PROB30 1403/1407 7000
BECMG 1412/1415 09011KT
TEMPO 1413/1416 18015G25KT 4000 RA SHRA SCT012 FEW050CB
PROB30 1416/1424 BKN006
BECMG 1418/1421 12007KT 4000 BR



MET'MAP, your aeronautical weather chart ! - Copyright ORBIFLY December 2007 - Disclaimer

ORBIFLY MET'MAP TEAM :

Programming & Development : Alexandra Zaïnal
Concept & Development : Baudouin d'Aumeries
Co-Development & Prog : Marc-Olivier Méhu
Technical & hardware support : Manuel Goepfert

Contact : metmap@orbifly.com




SOURCES & CREDITS :

   NOAA